createdAt,value
2018-09-17T00:02:22.729Z,6.30
2018-09-17T00:07:26.621Z,6.30
2018-09-17T00:12:30.183Z,7.20
2018-09-17T00:17:34.186Z,5.93
2018-09-17T00:22:37.677Z,6.10
2018-09-17T00:27:41.336Z,5.90
2018-09-17T00:32:44.966Z,5.67
2018-09-17T00:37:48.647Z,8.70
2018-09-17T00:42:52.402Z,5.40
2018-09-17T00:47:55.863Z,6.10
2018-09-17T00:52:59.549Z,9.43
2018-09-17T00:58:02.974Z,7.20
2018-09-17T01:03:06.839Z,7.07
2018-09-17T01:08:10.440Z,6.97
2018-09-17T01:13:14.114Z,6.33
2018-09-17T01:18:17.721Z,6.00
2018-09-17T01:23:21.348Z,8.40
2018-09-17T01:28:24.951Z,7.23
2018-09-17T01:33:28.584Z,7.80
2018-09-17T01:38:32.178Z,9.10
2018-09-17T01:43:36.053Z,8.60
2018-09-17T01:48:39.751Z,5.60
2018-09-17T01:53:43.490Z,8.73
2018-09-17T01:58:47.738Z,6.60
2018-09-17T02:03:51.322Z,5.57
2018-09-17T02:08:55.175Z,8.00
2018-09-17T02:13:58.918Z,7.27
2018-09-17T02:19:02.570Z,6.77
2018-09-17T02:24:06.414Z,5.40
2018-09-17T02:29:09.879Z,5.77
2018-09-17T02:34:13.431Z,6.90
2018-09-17T02:39:17.197Z,8.53
2018-09-17T02:44:21.226Z,5.57
2018-09-17T02:49:25.045Z,6.50
2018-09-17T02:54:28.534Z,9.93
2018-09-17T02:59:32.142Z,5.80
2018-09-17T03:04:42.175Z,5.57
2018-09-17T03:09:46.283Z,9.00
2018-09-17T03:14:50.119Z,8.40
2018-09-17T03:19:53.874Z,7.77
2018-09-17T03:24:57.519Z,7.03
2018-09-17T03:30:00.895Z,7.63
2018-09-17T03:35:05.086Z,9.97
2018-09-17T03:40:08.756Z,9.40
2018-09-17T03:45:12.252Z,8.40
2018-09-17T03:50:16.094Z,8.23
2018-09-17T03:55:19.520Z,8.77
2018-09-17T04:00:23.282Z,8.67
2018-09-17T04:05:26.678Z,9.10
2018-09-17T04:10:30.084Z,11.93
2018-09-17T04:15:33.452Z,13.30
2018-09-17T04:20:36.893Z,10.93
2018-09-17T04:25:40.310Z,13.43
2018-09-17T04:30:43.696Z,9.43
2018-09-17T04:35:47.393Z,10.13
2018-09-17T04:40:50.990Z,11.70
2018-09-17T04:45:54.512Z,12.30
2018-09-17T04:50:58.135Z,17.83
2018-09-17T04:56:01.559Z,17.67
2018-09-17T05:01:05.154Z,10.80
2018-09-17T05:06:09.561Z,9.47
2018-09-17T05:11:19.027Z,11.77
2018-09-17T05:16:23.326Z,10.10
2018-09-17T05:21:26.769Z,12.23
2018-09-17T05:26:30.194Z,11.77
2018-09-17T05:31:34.058Z,12.30
2018-09-17T05:36:37.535Z,16.60
2018-09-17T05:41:40.966Z,14.43
2018-09-17T05:46:44.379Z,14.50
2018-09-17T05:51:47.846Z,15.33
2018-09-17T05:56:51.286Z,15.77
2018-09-17T06:01:54.715Z,14.33
2018-09-17T06:06:58.232Z,12.53
2018-09-17T06:12:01.656Z,14.63
2018-09-17T06:17:05.124Z,13.40
2018-09-17T06:22:08.518Z,18.00
2018-09-17T06:27:12.015Z,10.80
2018-09-17T06:32:15.395Z,16.40
2018-09-17T06:37:18.826Z,19.10
2018-09-17T06:42:22.218Z,12.03
2018-09-17T06:47:25.610Z,13.63
2018-09-17T06:52:29.090Z,12.60
2018-09-17T06:57:32.526Z,14.47
2018-09-17T07:02:36.098Z,15.40
2018-09-17T07:07:39.632Z,13.13
2018-09-17T07:12:43.132Z,12.23
2018-09-17T07:17:46.555Z,16.00
2018-09-17T07:22:50.913Z,14.77
2018-09-17T07:27:54.675Z,15.30
2018-09-17T07:32:58.224Z,13.50
2018-09-17T07:38:01.852Z,14.60
2018-09-17T07:43:05.567Z,16.13
2018-09-17T07:48:09.166Z,13.77
2018-09-17T07:53:12.759Z,12.67
2018-09-17T07:58:16.353Z,14.73
2018-09-17T08:03:20.109Z,12.67
2018-09-17T08:08:24.045Z,12.90
2018-09-17T08:13:27.752Z,17.13
2018-09-17T08:18:31.225Z,15.63
2018-09-17T08:23:35.110Z,15.17
2018-09-17T08:28:38.685Z,13.17
2018-09-17T08:33:51.754Z,13.27
2018-09-17T08:38:57.148Z,13.80
2018-09-17T08:44:01.440Z,13.20
2018-09-17T08:49:05.032Z,11.60
2018-09-17T08:54:08.793Z,8.87
2018-09-17T08:59:17.774Z,8.90
2018-09-17T09:04:26.134Z,10.43
2018-09-17T09:09:29.578Z,8.77
2018-09-17T09:14:38.348Z,11.10
2018-09-17T09:19:42.088Z,14.47
2018-09-17T09:24:45.779Z,9.17
2018-09-17T09:29:50.688Z,8.50
2018-09-17T09:34:54.395Z,11.50
2018-09-17T09:39:58.183Z,8.93
2018-09-17T09:45:01.785Z,11.60
2018-09-17T09:50:05.361Z,11.27
2018-09-17T09:55:09.914Z,8.73
2018-09-17T10:00:20.132Z,10.43
2018-09-17T10:05:24.765Z,7.27
2018-09-17T10:10:33.677Z,6.30
2018-09-17T10:15:42.544Z,9.77
2018-09-17T10:20:46.291Z,8.00
2018-09-17T10:25:50.074Z,9.67
2018-09-17T10:30:53.861Z,10.93
2018-09-17T10:35:57.413Z,7.20
2018-09-17T10:41:00.871Z,8.70
2018-09-17T10:46:04.288Z,10.33
2018-09-17T10:51:07.769Z,5.73
2018-09-17T10:56:11.367Z,8.77
2018-09-17T11:01:14.942Z,8.63
2018-09-17T11:06:18.723Z,6.07
2018-09-17T11:11:29.254Z,9.37
2018-09-17T11:16:53.511Z,10.27
2018-09-17T11:22:00.811Z,10.33
2018-09-17T11:27:04.324Z,8.87
2018-09-17T11:32:08.241Z,8.60
2018-09-17T11:37:11.776Z,7.80
2018-09-17T11:42:15.187Z,10.00
2018-09-17T11:47:18.835Z,9.50
2018-09-17T11:52:23.026Z,10.70
2018-09-17T11:57:28.371Z,7.97
2018-09-17T12:02:35.889Z,9.03
2018-09-17T12:07:42.088Z,9.23
2018-09-17T12:12:47.759Z,9.87
2018-09-17T12:17:53.630Z,8.90
2018-09-17T12:22:57.462Z,5.87
2018-09-17T12:28:01.047Z,10.60
2018-09-17T12:33:04.537Z,11.30
2018-09-17T12:38:08.143Z,6.97
2018-09-17T12:43:11.557Z,10.07
2018-09-17T12:48:15.309Z,9.97
2018-09-17T12:53:18.956Z,9.67
2018-09-17T12:58:22.458Z,9.77
2018-09-17T13:03:26.021Z,8.50
2018-09-17T13:08:29.402Z,9.00
2018-09-17T13:13:32.827Z,8.07
2018-09-17T13:18:36.356Z,10.27
2018-09-17T13:23:40.164Z,7.60
2018-09-17T13:28:43.641Z,8.20
2018-09-17T13:33:47.247Z,8.70
2018-09-17T13:38:50.927Z,7.90
2018-09-17T13:43:54.365Z,6.50
2018-09-17T13:48:57.886Z,7.80
2018-09-17T13:54:01.357Z,5.80
2018-09-17T13:59:04.839Z,7.20
2018-09-17T14:04:08.292Z,4.33
2018-09-17T14:09:12.588Z,6.47
2018-09-17T14:14:16.048Z,7.27
2018-09-17T14:19:19.581Z,6.80
2018-09-17T14:24:29.910Z,7.47
2018-09-17T14:29:41.901Z,7.13
2018-09-17T14:34:46.512Z,7.40
2018-09-17T14:39:50.001Z,7.77
2018-09-17T14:44:53.541Z,10.10
2018-09-17T14:49:57.386Z,9.33
2018-09-17T14:55:02.145Z,8.23
2018-09-17T15:00:05.727Z,8.20
2018-09-17T15:05:09.157Z,9.10
2018-09-17T15:10:17.567Z,9.17
2018-09-17T15:15:23.675Z,9.60
2018-09-17T15:20:28.490Z,9.67
2018-09-17T15:25:31.979Z,9.70
2018-09-17T15:30:35.490Z,10.90
2018-09-17T15:35:39.020Z,11.23
2018-09-17T15:40:42.532Z,9.73
2018-09-17T15:45:46.710Z,12.60
2018-09-17T15:50:50.992Z,13.77
2018-09-17T15:55:54.879Z,14.00
2018-09-17T16:01:04.976Z,12.87
2018-09-17T16:06:09.737Z,11.57
2018-09-17T16:11:13.403Z,14.60
2018-09-17T16:16:17.731Z,17.60
2018-09-17T16:21:24.286Z,19.83
2018-09-17T16:26:29.437Z,20.83
2018-09-17T16:31:33.207Z,23.30
2018-09-17T16:36:37.108Z,23.30
2018-09-17T16:41:45.564Z,21.63
2018-09-17T16:46:50.283Z,29.03
2018-09-17T17:01:30.871Z,31.20
2018-09-17T17:06:35.266Z,31.37
2018-09-17T17:11:38.965Z,32.83
2018-09-17T17:16:42.719Z,31.00
2018-09-17T17:21:46.799Z,33.67
2018-09-17T17:26:51.386Z,39.87
2018-09-17T17:31:56.302Z,37.50
2018-09-17T17:37:05.208Z,35.63
2018-09-17T17:42:10.196Z,37.13
2018-09-17T17:47:14.487Z,14.20
2018-09-17T17:52:20.741Z,14.63
2018-09-17T17:57:26.445Z,12.73
2018-09-17T18:02:31.595Z,12.87
2018-09-17T18:07:36.961Z,12.47
2018-09-17T18:12:45.075Z,21.80
2018-09-17T18:17:50.477Z,38.37
2018-09-17T18:22:55.102Z,25.67
2018-09-17T18:28:00.954Z,16.43
2018-09-17T18:33:06.283Z,12.00
2018-09-17T18:38:13.430Z,13.83
2018-09-17T18:43:23.415Z,17.27
2018-09-17T18:48:27.810Z,13.80
2018-09-17T18:53:35.435Z,12.90
2018-09-17T18:58:41.904Z,13.17
2018-09-17T19:03:48.082Z,13.80
2018-09-17T19:08:54.750Z,13.17
2018-09-17T19:14:07.232Z,14.20
2018-09-17T19:19:13.825Z,18.30
2018-09-17T19:24:21.854Z,15.90
2018-09-17T19:29:33.939Z,15.70
2018-09-17T19:34:39.866Z,16.30
2018-09-17T19:39:50.246Z,14.03
2018-09-17T19:45:02.060Z,16.50
2018-09-17T19:50:13.661Z,11.47
2018-09-17T19:55:19.766Z,13.23
2018-09-17T20:00:30.091Z,17.00
2018-09-17T20:05:43.277Z,16.80
2018-09-17T20:10:56.305Z,15.87
2018-09-17T20:16:02.602Z,14.90
2018-09-17T20:21:07.848Z,13.80
2018-09-17T20:33:10.587Z,15.10
2018-09-17T20:38:16.061Z,21.00
2018-09-17T20:43:21.822Z,13.67
2018-09-17T20:48:32.032Z,13.17
2018-09-17T20:53:38.631Z,16.53
2018-09-17T20:58:48.002Z,16.47
2018-09-17T21:04:01.135Z,19.47
2018-09-17T21:09:08.000Z,22.75
2018-09-17T21:30:43.334Z,17.30
2018-09-17T21:35:48.836Z,19.17
2018-09-17T21:40:53.356Z,13.57
2018-09-17T21:45:58.375Z,14.40
2018-09-17T21:51:03.029Z,13.60
2018-09-17T21:56:07.063Z,13.37
2018-09-17T22:01:12.226Z,14.07
2018-09-17T22:06:17.732Z,17.40
2018-09-17T22:11:21.545Z,19.00
2018-09-17T22:16:25.085Z,17.50
2018-09-17T22:26:40.932Z,18.00
2018-09-17T22:31:48.541Z,16.60
2018-09-17T22:36:53.019Z,19.40
2018-09-17T22:41:56.921Z,18.23
2018-09-17T22:47:00.700Z,20.60
2018-09-17T22:52:04.633Z,15.03
2018-09-17T22:57:08.674Z,18.90
2018-09-17T23:02:12.875Z,13.37
2018-09-17T23:07:20.857Z,14.67
2018-09-17T23:12:24.886Z,14.50
2018-09-17T23:17:28.839Z,13.97
2018-09-17T23:22:32.447Z,13.70
2018-09-17T23:27:36.262Z,13.57
2018-09-17T23:32:40.279Z,14.27
2018-09-17T23:37:44.514Z,17.17
2018-09-17T23:42:48.069Z,13.73
2018-09-17T23:47:51.857Z,15.53
2018-09-17T23:52:55.628Z,13.33
2018-09-17T23:57:59.309Z,18.27
